createdAt,value
2023-03-29T00:02:04.472Z,42.85
2023-03-29T00:05:08.402Z,42.07
2023-03-29T00:08:14.625Z,42.26
2023-03-29T00:11:17.851Z,42.06
2023-03-29T00:14:20.905Z,41.36
2023-03-29T00:17:23.819Z,42.20
2023-03-29T00:20:27.093Z,42.26
2023-03-29T00:23:29.891Z,41.12
2023-03-29T00:26:32.649Z,40.89
2023-03-29T00:29:35.601Z,40.95
2023-03-29T00:32:38.916Z,41.24
2023-03-29T00:35:42.514Z,40.95
2023-03-29T00:38:45.471Z,41.70
2023-03-29T00:41:49.892Z,42.33
2023-03-29T00:45:20.829Z,42.76
2023-03-29T00:48:29.067Z,43.21
2023-03-29T00:51:36.514Z,44.16
2023-03-29T00:54:43.339Z,44.69
2023-03-29T00:57:47.299Z,44.23
2023-03-29T01:01:02.280Z,44.87
2023-03-29T01:04:18.116Z,44.96
2023-03-29T01:07:25.728Z,45.24
2023-03-29T01:10:37.493Z,45.52
2023-03-29T01:14:03.779Z,45.89
2023-03-29T01:17:07.290Z,45.75
2023-03-29T01:20:34.964Z,46.03
2023-03-29T01:23:58.366Z,46.35
2023-03-29T01:27:07.476Z,46.51
2023-03-29T01:30:17.396Z,45.90
2023-03-29T01:33:30.353Z,46.15
2023-03-29T01:36:44.837Z,46.51
2023-03-29T01:39:47.825Z,46.40
2023-03-29T01:43:01.798Z,46.52
2023-03-29T01:46:14.245Z,46.67
2023-03-29T01:49:42.541Z,46.67
2023-03-29T01:53:00.428Z,46.73
2023-03-29T01:56:08.777Z,46.86
2023-03-29T01:59:16.100Z,46.30
2023-03-29T02:02:21.158Z,46.60
2023-03-29T02:05:24.554Z,46.63
2023-03-29T02:08:29.255Z,46.82
2023-03-29T02:11:35.085Z,46.79
2023-03-29T02:14:38.942Z,47.16
2023-03-29T02:17:44.247Z,47.22
2023-03-29T02:20:50.781Z,47.50
2023-03-29T02:23:58.124Z,47.31
2023-03-29T02:27:01.457Z,47.28
2023-03-29T02:30:06.622Z,46.93
2023-03-29T02:33:12.246Z,46.77
2023-03-29T02:36:23.944Z,46.89
2023-03-29T02:39:32.189Z,46.91
2023-03-29T02:42:35.768Z,46.93
2023-03-29T02:45:41.168Z,47.12
2023-03-29T02:48:46.773Z,46.80
2023-03-29T02:51:53.618Z,47.00
2023-03-29T02:54:57.706Z,46.72
2023-03-29T02:58:07.902Z,46.79
2023-03-29T03:01:11.245Z,46.36
2023-03-29T03:04:14.840Z,47.20
2023-03-29T03:07:17.595Z,47.16
2023-03-29T03:10:20.752Z,47.44
2023-03-29T03:13:23.344Z,47.71
2023-03-29T03:16:28.095Z,47.71
2023-03-29T03:19:30.643Z,48.38
2023-03-29T03:22:34.973Z,48.46
2023-03-29T03:25:37.679Z,49.07
2023-03-29T03:28:40.996Z,48.73
2023-03-29T03:31:44.841Z,49.14
2023-03-29T03:34:48.879Z,49.36
2023-03-29T03:37:51.553Z,49.39
2023-03-29T03:40:56.309Z,49.45
2023-03-29T03:43:59.966Z,49.34
2023-03-29T03:47:05.303Z,49.61
2023-03-29T03:50:09.260Z,48.81
2023-03-29T03:53:12.353Z,49.18
2023-03-29T03:56:20.915Z,49.25
2023-03-29T03:59:26.652Z,48.66
2023-03-29T04:02:29.508Z,48.47
2023-03-29T04:05:32.827Z,49.08
2023-03-29T04:08:35.433Z,48.92
2023-03-29T04:11:39.278Z,48.89
2023-03-29T04:14:42.055Z,48.52
2023-03-29T04:17:45.442Z,48.96
2023-03-29T04:20:48.864Z,48.81
2023-03-29T04:23:53.164Z,49.31
2023-03-29T04:26:55.764Z,48.04
2023-03-29T04:29:59.077Z,48.25
2023-03-29T04:33:02.050Z,48.22
2023-03-29T04:36:06.416Z,48.16
2023-03-29T04:39:09.297Z,47.79
2023-03-29T04:42:13.012Z,47.84
2023-03-29T04:45:19.400Z,47.75
2023-03-29T04:48:24.587Z,47.59
2023-03-29T04:51:27.539Z,48.03
2023-03-29T04:54:30.897Z,47.99
2023-03-29T04:57:34.303Z,48.06
2023-03-29T05:00:37.991Z,46.29
2023-03-29T05:03:42.195Z,47.02
2023-03-29T05:06:45.599Z,47.35
2023-03-29T05:09:48.186Z,46.30
2023-03-29T05:12:54.049Z,44.61
2023-03-29T05:15:57.314Z,44.32
2023-03-29T05:19:01.182Z,44.00
2023-03-29T05:22:04.234Z,44.08
2023-03-29T05:25:09.106Z,43.63
2023-03-29T05:28:11.705Z,43.97
2023-03-29T05:31:16.957Z,44.07
2023-03-29T05:34:20.620Z,45.11
2023-03-29T05:37:24.369Z,43.97
2023-03-29T05:40:28.266Z,42.82
2023-03-29T05:43:32.784Z,43.39
2023-03-29T05:46:35.894Z,42.73
2023-03-29T05:49:39.449Z,42.56
2023-03-29T05:52:43.143Z,43.36
2023-03-29T05:55:46.770Z,41.63
2023-03-29T05:58:51.357Z,41.97
2023-03-29T06:01:55.418Z,41.99
2023-03-29T06:04:58.607Z,41.98
2023-03-29T06:08:03.246Z,43.08
2023-03-29T06:11:11.049Z,42.32
2023-03-29T06:14:17.785Z,40.28
2023-03-29T06:17:20.935Z,40.41
2023-03-29T06:20:23.849Z,41.10
2023-03-29T06:23:27.419Z,40.56
2023-03-29T06:26:30.663Z,41.16
2023-03-29T06:29:33.424Z,41.66
2023-03-29T06:32:36.418Z,40.60
2023-03-29T06:35:45.961Z,40.15
2023-03-29T06:38:49.098Z,41.29
2023-03-29T06:41:52.563Z,40.65
2023-03-29T06:44:57.182Z,38.87
2023-03-29T06:48:00.397Z,38.89
2023-03-29T06:51:03.520Z,38.94
2023-03-29T06:54:07.520Z,38.63
2023-03-29T06:57:13.318Z,37.40
2023-03-29T07:00:22.899Z,37.72
2023-03-29T07:03:26.624Z,36.34
2023-03-29T07:06:29.853Z,36.82
2023-03-29T07:09:33.495Z,37.04
2023-03-29T07:12:38.248Z,36.79
2023-03-29T07:15:42.411Z,36.84
2023-03-29T07:18:46.167Z,36.70
2023-03-29T07:21:51.636Z,36.50
2023-03-29T07:24:54.638Z,35.38
2023-03-29T07:27:57.621Z,35.79
2023-03-29T07:31:06.890Z,36.30
2023-03-29T07:34:13.380Z,33.50
2023-03-29T07:37:16.232Z,32.40
2023-03-29T07:40:23.269Z,33.06
2023-03-29T07:43:28.416Z,32.27
2023-03-29T07:46:31.541Z,32.71
2023-03-29T07:49:34.732Z,31.06
2023-03-29T07:52:38.402Z,31.20
2023-03-29T07:55:47.699Z,30.44
2023-03-29T07:58:51.765Z,29.18
2023-03-29T08:01:55.398Z,28.02
2023-03-29T08:05:00.597Z,27.74
2023-03-29T08:08:05.147Z,27.47
2023-03-29T08:11:11.275Z,28.80
2023-03-29T08:14:13.892Z,27.54
2023-03-29T08:17:18.831Z,28.37
2023-03-29T08:20:22.645Z,28.89
2023-03-29T08:23:25.941Z,28.89
2023-03-29T08:26:28.990Z,29.99
2023-03-29T08:29:32.650Z,29.73
2023-03-29T08:32:36.934Z,29.73
2023-03-29T08:35:40.492Z,29.15
2023-03-29T08:38:45.565Z,28.32
2023-03-29T08:42:26.647Z,28.34
2023-03-29T08:45:44.927Z,28.22
2023-03-29T08:48:57.692Z,27.40
2023-03-29T08:52:03.803Z,26.94
2023-03-29T08:55:18.003Z,27.64
2023-03-29T08:58:27.067Z,27.01
2023-03-29T09:01:36.395Z,27.19
2023-03-29T09:04:40.586Z,25.87
2023-03-29T09:07:44.621Z,24.37
2023-03-29T09:11:00.841Z,23.63
2023-03-29T09:14:23.027Z,22.61
2023-03-29T09:17:38.087Z,22.05
2023-03-29T09:20:57.174Z,21.80
2023-03-29T09:24:27.742Z,20.67
2023-03-29T09:28:04.817Z,19.82
2023-03-29T09:31:20.857Z,19.77
2023-03-29T09:34:31.884Z,41.36
2023-03-29T09:37:38.387Z,25.19
2023-03-29T09:40:44.028Z,26.47
2023-03-29T09:43:49.454Z,27.54
2023-03-29T09:46:57.130Z,30.68
2023-03-29T09:50:19.827Z,24.25
2023-03-29T09:53:33.475Z,22.72
2023-03-29T09:56:36.798Z,22.04
2023-03-29T09:59:40.623Z,21.46
2023-03-29T10:02:50.057Z,20.44
2023-03-29T10:05:57.428Z,19.52
2023-03-29T10:09:00.341Z,20.14
2023-03-29T10:12:06.867Z,19.63
2023-03-29T10:15:26.735Z,22.82
2023-03-29T10:18:39.189Z,24.22
2023-03-29T10:21:42.416Z,19.39
2023-03-29T10:24:53.794Z,24.38
2023-03-29T10:28:04.983Z,22.40
2023-03-29T10:31:17.957Z,20.57
2023-03-29T10:34:25.316Z,21.55
2023-03-29T10:37:28.581Z,20.85
2023-03-29T10:40:34.073Z,19.54
2023-03-29T10:43:43.245Z,21.43
2023-03-29T10:46:46.561Z,17.99
2023-03-29T10:49:58.901Z,20.57
2023-03-29T10:53:03.351Z,18.08
2023-03-29T10:56:32.537Z,18.96
2023-03-29T11:00:07.002Z,17.98
2023-03-29T11:03:17.043Z,18.88
2023-03-29T11:06:47.647Z,17.23
2023-03-29T11:09:59.734Z,17.82
2023-03-29T11:13:31.750Z,17.96
2023-03-29T11:16:42.124Z,18.45
2023-03-29T11:19:56.619Z,18.27
2023-03-29T11:23:26.079Z,17.15
2023-03-29T11:26:51.979Z,18.08
2023-03-29T11:30:07.936Z,21.64
2023-03-29T11:33:40.126Z,18.45
2023-03-29T11:37:24.655Z,18.63
2023-03-29T11:40:53.345Z,18.83
2023-03-29T11:44:09.947Z,19.11
2023-03-29T11:47:23.177Z,17.87
2023-03-29T11:50:36.743Z,18.62
2023-03-29T11:53:44.267Z,19.52
2023-03-29T11:57:02.497Z,18.95
2023-03-29T12:00:12.595Z,18.77
2023-03-29T12:03:39.448Z,19.30
2023-03-29T12:07:14.613Z,18.64
2023-03-29T12:10:21.491Z,18.17
2023-03-29T12:13:45.714Z,19.10
2023-03-29T12:16:58.360Z,18.74
2023-03-29T12:20:08.121Z,18.65
2023-03-29T12:23:15.107Z,18.84
2023-03-29T12:26:48.706Z,19.19
2023-03-29T12:30:17.044Z,20.14
2023-03-29T12:33:35.576Z,20.96
2023-03-29T12:37:08.210Z,21.53
2023-03-29T12:40:18.701Z,22.58
2023-03-29T12:43:28.293Z,23.86
2023-03-29T12:46:34.096Z,24.50
2023-03-29T12:49:39.452Z,24.60
2023-03-29T12:52:42.932Z,24.99
2023-03-29T12:55:56.702Z,24.40
2023-03-29T12:58:59.492Z,25.82
2023-03-29T13:02:22.936Z,23.68
2023-03-29T13:05:34.983Z,24.46
2023-03-29T13:08:43.312Z,25.04
2023-03-29T13:12:11.915Z,25.26
2023-03-29T13:15:14.996Z,25.76
2023-03-29T13:18:36.880Z,26.97
2023-03-29T13:21:59.151Z,27.81
2023-03-29T13:25:32.182Z,28.11
2023-03-29T13:29:07.873Z,29.20
2023-03-29T13:32:37.744Z,29.19
2023-03-29T13:36:19.739Z,28.81
2023-03-29T13:39:31.648Z,29.30
2023-03-29T13:42:34.683Z,29.66
2023-03-29T13:45:38.941Z,30.73
2023-03-29T13:48:42.666Z,32.00
2023-03-29T13:52:20.243Z,28.25
2023-03-29T13:55:47.495Z,27.76
2023-03-29T13:58:54.120Z,29.40
2023-03-29T14:02:00.591Z,28.64
2023-03-29T14:05:07.627Z,28.89
2023-03-29T14:08:18.601Z,29.47
2023-03-29T14:11:25.294Z,29.30
2023-03-29T14:14:32.123Z,29.72
2023-03-29T14:17:36.954Z,28.63
2023-03-29T14:20:45.839Z,28.81
2023-03-29T14:23:57.377Z,29.13
2023-03-29T14:27:04.104Z,29.31
2023-03-29T14:30:28.724Z,30.11
2023-03-29T14:33:37.745Z,29.93
2023-03-29T14:36:41.509Z,31.02
2023-03-29T14:39:44.897Z,31.33
2023-03-29T14:42:49.132Z,31.98
2023-03-29T14:45:52.189Z,32.87
2023-03-29T14:48:56.466Z,32.99
2023-03-29T14:52:00.259Z,34.05
2023-03-29T14:55:04.394Z,33.67
2023-03-29T14:58:21.685Z,33.76
2023-03-29T15:01:26.816Z,33.35
2023-03-29T15:04:35.133Z,33.60
2023-03-29T15:07:40.100Z,34.54
2023-03-29T15:10:44.833Z,34.70
2023-03-29T15:13:48.951Z,34.54
2023-03-29T15:16:56.597Z,35.49
2023-03-29T15:20:11.335Z,35.74
2023-03-29T15:23:16.871Z,35.61
2023-03-29T15:26:32.658Z,35.77
2023-03-29T15:29:42.399Z,35.49
2023-03-29T15:32:48.125Z,35.22
2023-03-29T15:35:53.701Z,35.16
2023-03-29T15:38:56.834Z,35.15
2023-03-29T15:41:59.739Z,34.78
2023-03-29T15:45:06.275Z,35.41
2023-03-29T15:48:23.238Z,35.04
2023-03-29T15:51:26.164Z,35.59
2023-03-29T15:54:31.037Z,36.02
2023-03-29T15:57:34.152Z,36.31
2023-03-29T16:00:40.759Z,35.40
2023-03-29T16:03:47.456Z,35.45
2023-03-29T16:06:53.250Z,35.70
2023-03-29T16:09:57.782Z,36.31
2023-03-29T16:13:00.689Z,36.00
2023-03-29T16:16:03.961Z,35.50
2023-03-29T16:19:06.957Z,35.54
2023-03-29T16:22:09.842Z,35.86
2023-03-29T16:25:16.047Z,36.03
2023-03-29T16:28:18.896Z,37.30
2023-03-29T16:31:24.876Z,38.49
2023-03-29T16:34:27.871Z,38.18
2023-03-29T16:37:30.809Z,37.41
2023-03-29T16:40:34.348Z,38.09
2023-03-29T16:43:38.685Z,38.57
2023-03-29T16:46:41.743Z,38.11
2023-03-29T16:49:48.646Z,39.96
2023-03-29T16:52:54.515Z,39.69
2023-03-29T16:55:57.723Z,38.68
2023-03-29T16:59:00.854Z,38.79
2023-03-29T17:02:04.037Z,38.78
2023-03-29T17:05:07.270Z,38.52
2023-03-29T17:08:10.333Z,39.42
2023-03-29T17:11:14.190Z,37.85
2023-03-29T17:14:17.232Z,37.75
2023-03-29T17:17:20.153Z,37.90
2023-03-29T17:20:22.962Z,38.86
2023-03-29T17:23:26.312Z,38.82
2023-03-29T17:26:29.112Z,40.20
2023-03-29T17:29:32.080Z,39.93
2023-03-29T17:32:35.821Z,40.94
2023-03-29T17:35:41.901Z,41.28
2023-03-29T17:38:48.799Z,42.13
2023-03-29T17:41:51.729Z,42.23
2023-03-29T17:44:54.829Z,42.96
2023-03-29T17:47:58.093Z,43.51
2023-03-29T17:51:01.225Z,43.93
2023-03-29T17:54:04.366Z,44.48
2023-03-29T17:57:07.725Z,44.85
2023-03-29T18:00:13.482Z,45.29
2023-03-29T18:03:18.639Z,45.70
2023-03-29T18:06:21.338Z,46.05
2023-03-29T18:09:26.671Z,46.10
2023-03-29T18:12:30.764Z,46.37
2023-03-29T18:15:34.017Z,46.42
2023-03-29T18:18:37.373Z,46.76
2023-03-29T18:21:40.697Z,46.69
2023-03-29T18:24:43.361Z,46.97
2023-03-29T18:27:46.466Z,47.31
2023-03-29T18:30:51.993Z,47.48
2023-03-29T18:33:55.309Z,47.58
2023-03-29T18:36:57.915Z,47.88
2023-03-29T18:40:01.173Z,48.05
2023-03-29T18:43:03.876Z,47.97
2023-03-29T18:46:08.495Z,48.33
2023-03-29T18:49:13.213Z,48.42
2023-03-29T18:52:16.330Z,49.04
2023-03-29T18:55:18.890Z,49.13
2023-03-29T18:58:24.089Z,49.64
2023-03-29T19:01:26.739Z,49.55
2023-03-29T19:04:30.082Z,49.25
2023-03-29T19:07:32.673Z,48.99
2023-03-29T19:10:39.364Z,48.96
2023-03-29T19:13:42.416Z,49.33
2023-03-29T19:16:45.574Z,49.50
2023-03-29T19:19:48.066Z,49.80
2023-03-29T19:22:51.974Z,49.45
2023-03-29T19:26:33.432Z,49.88
2023-03-29T19:29:41.267Z,49.83
2023-03-29T19:32:45.000Z,50.28
2023-03-29T19:35:51.377Z,50.57
2023-03-29T19:38:54.356Z,50.85
2023-03-29T19:41:57.565Z,50.77
2023-03-29T19:45:00.189Z,51.17
2023-03-29T19:48:03.753Z,50.72
2023-03-29T19:51:06.679Z,51.12
2023-03-29T19:54:12.358Z,51.11
2023-03-29T19:57:14.907Z,51.35
2023-03-29T20:00:24.576Z,51.21
2023-03-29T20:03:28.537Z,51.22
2023-03-29T20:06:31.578Z,50.38
2023-03-29T20:09:34.557Z,50.19
2023-03-29T20:12:37.412Z,50.18
2023-03-29T20:15:40.253Z,50.51
2023-03-29T20:18:44.865Z,51.04
2023-03-29T20:21:50.775Z,51.10
2023-03-29T20:24:53.696Z,51.84
2023-03-29T20:27:57.391Z,52.64
2023-03-29T20:31:10.873Z,50.42
2023-03-29T20:34:13.728Z,50.89
2023-03-29T20:37:16.547Z,50.64
2023-03-29T20:40:20.868Z,50.58
2023-03-29T20:43:24.332Z,52.15
2023-03-29T20:46:34.117Z,50.65
2023-03-29T20:49:38.323Z,51.52
2023-03-29T20:52:41.235Z,51.33
2023-03-29T20:55:44.040Z,50.49
2023-03-29T20:58:47.021Z,49.62
2023-03-29T21:01:50.354Z,50.00
2023-03-29T21:04:54.129Z,51.20
2023-03-29T21:07:57.048Z,51.00
2023-03-29T21:10:59.952Z,52.30
2023-03-29T21:14:04.174Z,51.70
2023-03-29T21:17:09.290Z,52.52
2023-03-29T21:20:12.633Z,52.48
2023-03-29T21:23:15.616Z,52.98
2023-03-29T21:26:21.349Z,52.89
2023-03-29T21:29:24.269Z,52.88
2023-03-29T21:32:27.204Z,52.53
2023-03-29T21:35:33.284Z,53.39
2023-03-29T21:38:36.162Z,52.57
2023-03-29T21:41:39.049Z,52.85
2023-03-29T21:44:41.911Z,52.29
2023-03-29T21:47:44.764Z,52.89
2023-03-29T21:50:51.145Z,53.20
2023-03-29T21:53:56.569Z,53.86
2023-03-29T21:56:59.439Z,53.87
2023-03-29T22:00:02.751Z,53.52
2023-03-29T22:03:08.180Z,52.95
2023-03-29T22:06:13.512Z,53.64
2023-03-29T22:09:16.483Z,53.95
2023-03-29T22:12:19.828Z,53.18
2023-03-29T22:15:22.940Z,53.86
2023-03-29T22:18:43.597Z,53.51
2023-03-29T22:21:48.747Z,52.35
2023-03-29T22:24:53.998Z,52.57
2023-03-29T22:27:57.052Z,52.55
2023-03-29T22:31:08.772Z,53.04
2023-03-29T22:34:11.601Z,53.33
2023-03-29T22:37:14.394Z,53.45
2023-03-29T22:40:18.024Z,53.91
2023-03-29T22:43:21.549Z,54.67
2023-03-29T22:46:24.964Z,54.37
2023-03-29T22:49:27.822Z,53.73
2023-03-29T22:52:30.725Z,54.28
2023-03-29T22:55:33.543Z,55.05
2023-03-29T22:58:37.319Z,55.95
2023-03-29T23:01:40.483Z,55.62
2023-03-29T23:04:45.387Z,55.18
2023-03-29T23:07:48.725Z,55.58
2023-03-29T23:10:52.710Z,54.92
2023-03-29T23:13:55.572Z,55.59
2023-03-29T23:16:58.384Z,55.42
2023-03-29T23:20:02.051Z,55.53
2023-03-29T23:23:04.870Z,54.82
2023-03-29T23:26:11.868Z,55.75
2023-03-29T23:29:15.404Z,56.19
2023-03-29T23:32:18.084Z,55.93
2023-03-29T23:35:21.359Z,56.51
2023-03-29T23:38:26.392Z,57.37
2023-03-29T23:41:30.675Z,58.52
2023-03-29T23:44:33.788Z,57.20
2023-03-29T23:47:37.080Z,57.58
2023-03-29T23:50:39.967Z,56.83
2023-03-29T23:53:42.773Z,57.12
2023-03-29T23:56:45.751Z,57.09
2023-03-29T23:59:52.643Z,56.74
